createdAt,value
2018-04-29T00:01:33.904Z,11.40
2018-04-29T00:06:36.166Z,11.40
2018-04-29T00:11:37.636Z,11.40
2018-04-29T00:16:40.081Z,11.40
2018-04-29T00:21:41.615Z,11.30
2018-04-29T00:26:43.301Z,11.20
2018-04-29T00:31:44.959Z,11.20
2018-04-29T00:36:46.483Z,11.30
2018-04-29T00:41:47.995Z,11.00
2018-04-29T00:46:49.621Z,10.90
2018-04-29T00:52:08.488Z,10.80
2018-04-29T00:57:10.086Z,10.70
2018-04-29T01:02:12.391Z,10.60
2018-04-29T01:07:14.693Z,10.60
2018-04-29T01:12:16.221Z,10.50
2018-04-29T01:17:21.534Z,10.40
2018-04-29T01:22:24.123Z,10.40
2018-04-29T01:27:26.967Z,10.50
2018-04-29T01:32:30.080Z,10.60
2018-04-29T01:37:33.211Z,10.70
2018-04-29T01:42:34.811Z,10.70
2018-04-29T01:47:36.335Z,10.60
2018-04-29T01:52:37.853Z,10.40
2018-04-29T01:57:46.405Z,10.20
2018-04-29T02:02:50.153Z,10.20
2018-04-29T02:07:51.700Z,10.10
2018-04-29T02:12:53.232Z,10.10
2018-04-29T02:17:54.779Z,10.00
2018-04-29T02:22:56.414Z,9.80
2018-04-29T02:27:58.730Z,9.60
2018-04-29T02:33:00.271Z,9.50
2018-04-29T02:38:02.515Z,9.60
2018-04-29T02:43:03.986Z,9.50
2018-04-29T02:48:05.556Z,9.50
2018-04-29T02:53:07.192Z,9.50
2018-04-29T02:58:08.702Z,9.50
2018-04-29T03:03:10.276Z,9.60
2018-04-29T03:08:11.825Z,9.50
2018-04-29T03:13:13.396Z,9.50
2018-04-29T03:18:14.946Z,9.30
2018-04-29T03:23:16.463Z,9.30
2018-04-29T03:28:17.995Z,9.20
2018-04-29T03:33:19.450Z,9.20
2018-04-29T03:38:20.998Z,9.10
2018-04-29T03:43:22.730Z,9.30
2018-04-29T03:48:24.261Z,9.30
2018-04-29T03:53:25.780Z,9.20
2018-04-29T04:14:33.768Z,9.40
2018-04-29T04:19:35.292Z,9.30
2018-04-29T04:24:36.888Z,9.40
2018-04-29T04:29:38.447Z,9.40
2018-04-29T04:34:40.017Z,9.50
2018-04-29T04:39:41.563Z,9.60
2018-04-29T04:44:43.156Z,9.70
2018-04-29T04:49:44.740Z,10.10
2018-04-29T04:54:46.685Z,10.30
2018-04-29T04:59:48.423Z,10.80
2018-04-29T05:04:50.023Z,12.00
2018-04-29T05:09:51.641Z,13.40
2018-04-29T05:14:53.340Z,15.00
2018-04-29T05:19:55.653Z,18.10
2018-04-29T05:24:57.219Z,18.00
2018-04-29T05:29:58.764Z,19.10
2018-04-29T05:35:00.952Z,20.00
2018-04-29T05:40:02.560Z,19.10
2018-04-29T05:45:04.392Z,17.60
2018-04-29T05:50:06.633Z,15.50
2018-04-29T05:55:08.286Z,15.40
2018-04-29T06:00:09.898Z,14.70
2018-04-29T06:05:11.455Z,13.50
2018-04-29T06:10:13.046Z,12.30
2018-04-29T06:15:15.377Z,11.00
2018-04-29T06:20:16.912Z,10.90
2018-04-29T06:25:19.242Z,11.10
2018-04-29T06:30:20.770Z,11.00
2018-04-29T06:35:23.116Z,11.20
2018-04-29T06:40:24.657Z,11.10
2018-04-29T06:45:26.209Z,11.80
2018-04-29T06:50:27.809Z,13.80
2018-04-29T06:55:29.398Z,16.40
2018-04-29T07:00:30.872Z,17.10
2018-04-29T07:05:32.412Z,17.60
2018-04-29T07:10:34.143Z,18.00
2018-04-29T07:15:35.790Z,17.60
2018-04-29T07:20:38.044Z,16.20
2018-04-29T07:25:39.561Z,16.10
2018-04-29T07:30:41.849Z,15.10
2018-04-29T07:35:43.344Z,15.00
2018-04-29T07:40:44.988Z,14.60
2018-04-29T07:45:46.699Z,13.70
2018-04-29T07:50:48.269Z,13.10
2018-04-29T07:55:49.815Z,12.80
2018-04-29T08:00:51.494Z,13.80
2018-04-29T08:05:53.766Z,17.20
2018-04-29T08:10:56.038Z,17.20
2018-04-29T08:15:58.262Z,16.40
2018-04-29T08:20:59.832Z,15.80
2018-04-29T08:26:01.369Z,15.30
2018-04-29T08:31:04.220Z,14.90
2018-04-29T08:36:05.877Z,14.60
2018-04-29T08:41:07.676Z,14.30
2018-04-29T08:46:09.234Z,14.30
2018-04-29T08:51:10.809Z,14.10
2018-04-29T08:56:12.375Z,14.40
2018-04-29T09:01:13.906Z,14.30
2018-04-29T09:06:15.542Z,14.70
2018-04-29T09:11:17.233Z,15.10
2018-04-29T09:16:18.918Z,15.70
2018-04-29T09:21:20.600Z,15.80
2018-04-29T09:26:22.254Z,15.70
2018-04-29T09:31:23.950Z,15.50
2018-04-29T09:36:28.159Z,15.30
2018-04-29T09:41:33.465Z,15.30
2018-04-29T09:46:38.448Z,15.70
2018-04-29T09:51:42.015Z,15.90
2018-04-29T09:56:46.160Z,16.50
2018-04-29T10:01:53.257Z,16.90
2018-04-29T10:07:04.284Z,17.20
2018-04-29T10:12:10.201Z,17.50
2018-04-29T10:17:17.964Z,17.50
2018-04-29T10:22:20.664Z,17.80
2018-04-29T10:27:22.352Z,17.70
2018-04-29T10:32:24.212Z,18.00
2018-04-29T10:37:26.157Z,18.40
2018-04-29T10:48:03.823Z,18.30
2018-04-29T10:53:05.891Z,18.20
2018-04-29T10:58:14.340Z,18.80
2018-04-29T11:03:20.727Z,19.00
2018-04-29T11:08:27.214Z,19.00
2018-04-29T11:13:34.065Z,19.00
2018-04-29T11:18:43.934Z,19.10
2018-04-29T11:23:50.180Z,19.10
2018-04-29T11:28:56.592Z,19.40
2018-04-29T11:34:04.463Z,19.50
2018-04-29T11:39:07.590Z,19.60
2018-04-29T11:44:09.195Z,19.60
2018-04-29T11:49:11.143Z,19.60
2018-04-29T11:54:13.585Z,19.60
2018-04-29T11:59:15.295Z,19.80
2018-04-29T12:04:17.148Z,19.90
2018-04-29T12:09:19.403Z,20.30
2018-04-29T12:14:25.679Z,20.40
2018-04-29T12:19:38.031Z,20.60
2018-04-29T12:24:45.061Z,20.90
2018-04-29T12:29:51.929Z,20.90
2018-04-29T12:35:00.039Z,21.10
2018-04-29T12:40:07.525Z,21.00
2018-04-29T12:50:59.432Z,21.60
2018-04-29T12:56:03.588Z,21.60
2018-04-29T13:06:54.055Z,21.90
2018-04-29T13:11:55.664Z,22.00
2018-04-29T13:17:00.246Z,22.30
2018-04-29T13:22:05.397Z,22.30
2018-04-29T13:27:08.276Z,22.40
2018-04-29T13:32:09.880Z,22.80
2018-04-29T13:37:11.427Z,22.90
2018-04-29T13:42:13.008Z,22.90
2018-04-29T13:58:26.639Z,23.20
2018-04-29T14:03:28.487Z,23.70
2018-04-29T14:08:30.955Z,23.80
2018-04-29T14:13:32.659Z,24.00
2018-04-29T14:24:19.430Z,24.20
2018-04-29T14:29:21.813Z,24.30
2018-04-29T14:34:23.384Z,24.20
2018-04-29T14:39:25.685Z,24.50
2018-04-29T14:44:29.857Z,24.60
2018-04-29T14:49:48.162Z,24.50
2018-04-29T14:54:50.992Z,24.30
2018-04-29T14:59:52.650Z,24.40
2018-04-29T15:04:54.196Z,24.60
2018-04-29T15:09:56.449Z,24.90
2018-04-29T15:15:00.319Z,24.80
2018-04-29T15:20:02.080Z,24.80
2018-04-29T15:25:13.214Z,24.70
2018-04-29T15:30:15.589Z,24.80
2018-04-29T15:35:17.148Z,24.70
2018-04-29T15:40:18.705Z,24.80
2018-04-29T15:45:30.255Z,24.50
2018-04-29T15:50:32.683Z,24.40
2018-04-29T15:55:34.738Z,24.50
2018-04-29T16:00:36.300Z,24.50
2018-04-29T16:05:38.323Z,24.40
2018-04-29T16:10:40.858Z,24.60
2018-04-29T16:26:44.689Z,24.40
2018-04-29T16:31:46.779Z,24.30
2018-04-29T16:36:49.272Z,24.20
2018-04-29T16:41:51.614Z,24.10
2018-04-29T16:46:53.380Z,24.10
2018-04-29T16:51:59.580Z,24.10
2018-04-29T16:57:02.091Z,24.10
2018-04-29T17:02:05.463Z,24.10
2018-04-29T17:12:42.853Z,23.70
2018-04-29T17:34:30.417Z,23.40
2018-04-29T17:39:32.297Z,23.10
2018-04-29T17:44:34.754Z,23.00
2018-04-29T17:49:38.249Z,22.70
2018-04-29T17:55:08.760Z,22.50
2018-04-29T18:00:32.981Z,22.30
2018-04-29T18:05:34.655Z,22.20
2018-04-29T18:21:48.410Z,21.40
2018-04-29T18:26:50.001Z,21.20
2018-04-29T18:31:54.154Z,21.10
2018-04-29T18:36:56.303Z,21.00
2018-04-29T18:41:58.628Z,20.80
2018-04-29T18:47:00.943Z,20.80
2018-04-29T18:52:03.685Z,20.90
2018-04-29T18:57:06.536Z,20.70
2018-04-29T19:02:08.643Z,20.50
2018-04-29T19:07:10.258Z,20.40
2018-04-29T19:12:12.016Z,20.30
2018-04-29T19:17:14.039Z,20.40
2018-04-29T19:22:16.051Z,20.40
2018-04-29T19:27:19.332Z,20.40
2018-04-29T19:32:21.241Z,20.40
2018-04-29T19:37:23.372Z,20.40
2018-04-29T19:42:25.258Z,20.30
2018-04-29T19:47:28.687Z,20.20
2018-04-29T19:52:30.485Z,20.20
2018-04-29T19:57:32.527Z,20.10
2018-04-29T20:02:35.051Z,20.00
2018-04-29T20:07:36.914Z,20.00
2018-04-29T20:12:39.103Z,20.10
2018-04-29T20:17:40.926Z,19.90
2018-04-29T20:22:43.218Z,19.90
2018-04-29T20:27:46.357Z,19.90
2018-04-29T20:32:48.529Z,19.90
2018-04-29T20:37:50.971Z,19.90
2018-04-29T20:42:53.826Z,19.80
2018-04-29T20:47:56.003Z,19.80
2018-04-29T20:52:58.099Z,19.70
2018-04-29T20:58:00.388Z,19.60
2018-04-29T21:03:02.504Z,19.50
2018-04-29T21:08:05.371Z,19.40
2018-04-29T21:13:07.146Z,19.20
2018-04-29T21:18:09.643Z,19.00
2018-04-29T21:23:11.971Z,19.00
2018-04-29T21:28:14.250Z,18.90
2018-04-29T21:33:16.540Z,18.90
2018-04-29T21:38:19.053Z,18.90
2018-04-29T21:43:20.633Z,18.90
2018-04-29T21:48:22.172Z,19.00
2018-04-29T21:53:23.753Z,19.00
2018-04-29T21:58:25.340Z,19.00
2018-04-29T22:03:26.880Z,19.00
2018-04-29T22:08:28.450Z,18.90
2018-04-29T22:13:30.085Z,18.90
2018-04-29T22:18:31.644Z,18.90
2018-04-29T22:23:33.163Z,19.00
2018-04-29T22:28:34.731Z,19.00
2018-04-29T22:33:36.278Z,18.90
2018-04-29T22:38:38.561Z,18.60
2018-04-29T22:43:40.836Z,18.60
2018-04-29T22:48:42.355Z,18.60
2018-04-29T22:53:43.911Z,18.50
2018-04-29T22:58:45.608Z,18.40
2018-04-29T23:03:47.124Z,18.20
2018-04-29T23:08:49.451Z,18.00
2018-04-29T23:13:51.035Z,18.00
2018-04-29T23:18:52.757Z,18.00
2018-04-29T23:23:55.060Z,17.90
2018-04-29T23:28:56.643Z,17.90
2018-04-29T23:33:58.200Z,17.90
2018-04-29T23:38:59.743Z,18.10
2018-04-29T23:44:02.018Z,18.30
2018-04-29T23:49:04.419Z,18.40
2018-04-29T23:54:06.700Z,18.60
2018-04-29T23:59:08.976Z,18.60
